sensor_id;sensor_type;location;lat;lon;timestamp;pressure;altitude;pressure_sealevel;temperature;humidity
70555;BME280;58104;52.744;15.242;2023-12-14T00:01:26;99865.62;;;18.35;49.66
70555;BME280;58104;52.744;15.242;2023-12-14T00:03:51;99868.92;;;18.41;49.77
70555;BME280;58104;52.744;15.242;2023-12-14T00:06:17;99874.49;;;18.45;49.87
70555;BME280;58104;52.744;15.242;2023-12-14T00:08:42;99878.40;;;18.32;49.96
70555;BME280;58104;52.744;15.242;2023-12-14T00:11:09;99882.16;;;18.39;50.05
70555;BME280;58104;52.744;15.242;2023-12-14T00:13:33;99882.92;;;18.42;50.15
70555;BME280;58104;52.744;15.242;2023-12-14T00:15:58;99883.80;;;18.42;50.25
70555;BME280;58104;52.744;15.242;2023-12-14T00:18:23;99883.91;;;18.36;50.32
70555;BME280;58104;52.744;15.242;2023-12-14T00:20:49;99882.81;;;18.37;50.32
70555;BME280;58104;52.744;15.242;2023-12-14T00:23:14;99884.48;;;18.32;50.35
70555;BME280;58104;52.744;15.242;2023-12-14T00:25:40;99890.12;;;18.42;50.45
70555;BME280;58104;52.744;15.242;2023-12-14T00:28:05;99896.02;;;18.37;50.51
70555;BME280;58104;52.744;15.242;2023-12-14T00:30:31;99894.81;;;18.36;50.56
70555;BME280;58104;52.744;15.242;2023-12-14T00:32:56;99900.48;;;18.37;50.61
70555;BME280;58104;52.744;15.242;2023-12-14T00:35:21;99903.60;;;18.33;50.55
70555;BME280;58104;52.744;15.242;2023-12-14T00:37:47;99904.87;;;18.37;50.71
70555;BME280;58104;52.744;15.242;2023-12-14T00:40:12;99908.24;;;18.27;50.84
70555;BME280;58104;52.744;15.242;2023-12-14T00:42:38;99911.21;;;18.32;50.79
70555;BME280;58104;52.744;15.242;2023-12-14T00:45:03;99908.98;;;18.30;50.89
70555;BME280;58104;52.744;15.242;2023-12-14T00:47:28;99906.07;;;18.42;50.93
70555;BME280;58104;52.744;15.242;2023-12-14T00:49:54;99913.41;;;18.28;51.02
70555;BME280;58104;52.744;15.242;2023-12-14T00:52:19;99910.11;;;18.27;51.09
70555;BME280;58104;52.744;15.242;2023-12-14T00:54:44;99909.90;;;18.38;51.17
70555;BME280;58104;52.744;15.242;2023-12-14T00:57:10;99919.03;;;18.39;51.19
70555;BME280;58104;52.744;15.242;2023-12-14T00:59:35;99921.33;;;18.33;51.27
70555;BME280;58104;52.744;15.242;2023-12-14T01:02:01;99921.15;;;18.32;51.36
70555;BME280;58104;52.744;15.242;2023-12-14T01:04:26;99922.99;;;18.36;51.42
70555;BME280;58104;52.744;15.242;2023-12-14T01:06:51;99925.99;;;18.26;51.44
70555;BME280;58104;52.744;15.242;2023-12-14T01:09:17;99927.40;;;18.31;51.50
70555;BME280;58104;52.744;15.242;2023-12-14T01:11:42;99931.56;;;18.31;51.55
70555;BME280;58104;52.744;15.242;2023-12-14T01:14:08;99935.30;;;18.37;51.63
70555;BME280;58104;52.744;15.242;2023-12-14T01:16:33;99939.50;;;18.36;51.72
70555;BME280;58104;52.744;15.242;2023-12-14T01:18:58;99942.95;;;18.34;51.75
70555;BME280;58104;52.744;15.242;2023-12-14T01:21:24;99946.53;;;18.39;51.79
70555;BME280;58104;52.744;15.242;2023-12-14T01:23:49;99948.14;;;18.27;51.87
70555;BME280;58104;52.744;15.242;2023-12-14T01:26:15;99950.26;;;18.32;51.96
70555;BME280;58104;52.744;15.242;2023-12-14T01:28:40;99952.86;;;18.38;52.10
70555;BME280;58104;52.744;15.242;2023-12-14T01:31:05;99955.63;;;18.33;52.13
70555;BME280;58104;52.744;15.242;2023-12-14T01:33:31;99961.81;;;18.33;52.18
70555;BME280;58104;52.744;15.242;2023-12-14T01:35:56;99965.37;;;18.34;52.26
70555;BME280;58104;52.744;15.242;2023-12-14T01:38:22;99972.51;;;18.39;52.43
70555;BME280;58104;52.744;15.242;2023-12-14T01:40:47;99971.69;;;18.25;52.60
70555;BME280;58104;52.744;15.242;2023-12-14T01:43:12;99972.23;;;18.38;52.70
70555;BME280;58104;52.744;15.242;2023-12-14T01:45:38;99976.73;;;18.37;52.85
70555;BME280;58104;52.744;15.242;2023-12-14T01:48:04;99973.83;;;18.38;52.95
70555;BME280;58104;52.744;15.242;2023-12-14T01:50:29;99979.71;;;18.32;53.10
70555;BME280;58104;52.744;15.242;2023-12-14T01:52:54;99979.18;;;18.32;53.22
70555;BME280;58104;52.744;15.242;2023-12-14T01:55:19;99979.18;;;18.36;53.42
70555;BME280;58104;52.744;15.242;2023-12-14T01:57:45;99987.20;;;18.37;53.50
70555;BME280;58104;52.744;15.242;2023-12-14T02:00:17;99987.84;;;18.36;53.60
70555;BME280;58104;52.744;15.242;2023-12-14T02:02:35;99989.79;;;18.37;53.60
70555;BME280;58104;52.744;15.242;2023-12-14T02:05:01;99996.27;;;18.37;53.70
70555;BME280;58104;52.744;15.242;2023-12-14T02:07:26;99999.62;;;18.35;53.69
70555;BME280;58104;52.744;15.242;2023-12-14T02:09:52;100008.36;;;18.26;53.88
70555;BME280;58104;52.744;15.242;2023-12-14T02:12:17;100008.71;;;18.30;54.07
70555;BME280;58104;52.744;15.242;2023-12-14T02:14:43;100015.49;;;18.32;54.13
70555;BME280;58104;52.744;15.242;2023-12-14T02:17:08;100015.07;;;18.30;54.16
70555;BME280;58104;52.744;15.242;2023-12-14T02:19:33;100014.99;;;18.36;54.26
70555;BME280;58104;52.744;15.242;2023-12-14T02:21:59;100020.53;;;18.35;54.27
70555;BME280;58104;52.744;15.242;2023-12-14T02:24:24;100020.54;;;18.31;54.33
70555;BME280;58104;52.744;15.242;2023-12-14T02:26:50;100025.89;;;18.25;54.34
70555;BME280;58104;52.744;15.242;2023-12-14T02:29:15;100028.63;;;18.37;54.38
70555;BME280;58104;52.744;15.242;2023-12-14T02:31:40;100036.06;;;18.30;54.40
70555;BME280;58104;52.744;15.242;2023-12-14T02:34:06;100037.32;;;18.34;54.48
70555;BME280;58104;52.744;15.242;2023-12-14T02:36:31;100040.17;;;18.28;54.57
70555;BME280;58104;52.744;15.242;2023-12-14T02:38:56;100042.98;;;18.29;54.62
70555;BME280;58104;52.744;15.242;2023-12-14T02:41:22;100048.97;;;18.31;54.67
70555;BME280;58104;52.744;15.242;2023-12-14T02:43:47;100049.05;;;18.36;54.90
70555;BME280;58104;52.744;15.242;2023-12-14T02:46:13;100054.65;;;18.36;55.00
70555;BME280;58104;52.744;15.242;2023-12-14T02:48:41;100052.85;;;18.36;55.02
70555;BME280;58104;52.744;15.242;2023-12-14T02:51:04;100055.03;;;18.30;55.11
70555;BME280;58104;52.744;15.242;2023-12-14T02:53:29;100059.97;;;18.35;55.18
70555;BME280;58104;52.744;15.242;2023-12-14T02:55:54;100061.40;;;18.31;55.29
70555;BME280;58104;52.744;15.242;2023-12-14T02:58:19;100062.46;;;18.35;55.33
70555;BME280;58104;52.744;15.242;2023-12-14T03:00:45;100063.71;;;18.38;55.45
70555;BME280;58104;52.744;15.242;2023-12-14T03:03:10;100068.89;;;18.36;55.52
70555;BME280;58104;52.744;15.242;2023-12-14T03:05:36;100070.35;;;18.30;55.64
70555;BME280;58104;52.744;15.242;2023-12-14T03:08:01;100073.54;;;18.24;55.67
70555;BME280;58104;52.744;15.242;2023-12-14T03:10:27;100073.85;;;18.29;55.77
70555;BME280;58104;52.744;15.242;2023-12-14T03:12:52;100075.88;;;18.29;55.88
70555;BME280;58104;52.744;15.242;2023-12-14T03:15:18;100081.37;;;18.30;55.92
70555;BME280;58104;52.744;15.242;2023-12-14T03:17:43;100076.63;;;18.28;56.29
70555;BME280;58104;52.744;15.242;2023-12-14T03:20:09;100081.22;;;18.37;56.33
70555;BME280;58104;52.744;15.242;2023-12-14T03:22:33;100080.76;;;18.31;56.37
70555;BME280;58104;52.744;15.242;2023-12-14T03:24:59;100084.54;;;18.25;56.39
70555;BME280;58104;52.744;15.242;2023-12-14T03:27:24;100084.95;;;18.35;56.59
70555;BME280;58104;52.744;15.242;2023-12-14T03:29:50;100090.24;;;18.26;56.63
70555;BME280;58104;52.744;15.242;2023-12-14T03:32:15;100090.88;;;18.32;56.74
70555;BME280;58104;52.744;15.242;2023-12-14T03:34:40;100091.71;;;18.34;56.82
70555;BME280;58104;52.744;15.242;2023-12-14T03:37:06;100092.29;;;18.30;56.94
70555;BME280;58104;52.744;15.242;2023-12-14T03:39:31;100095.93;;;18.33;57.09
70555;BME280;58104;52.744;15.242;2023-12-14T03:41:57;100097.23;;;18.31;57.08
70555;BME280;58104;52.744;15.242;2023-12-14T03:44:22;100101.70;;;18.30;57.09
70555;BME280;58104;52.744;15.242;2023-12-14T03:46:47;100106.20;;;18.29;57.24
70555;BME280;58104;52.744;15.242;2023-12-14T03:49:13;100107.66;;;18.30;57.26
70555;BME280;58104;52.744;15.242;2023-12-14T03:51:39;100108.97;;;18.36;57.22
70555;BME280;58104;52.744;15.242;2023-12-14T03:54:04;100108.54;;;18.37;57.25
70555;BME280;58104;52.744;15.242;2023-12-14T03:56:29;100106.84;;;18.33;57.21
70555;BME280;58104;52.744;15.242;2023-12-14T03:58:54;100106.15;;;18.37;57.25
70555;BME280;58104;52.744;15.242;2023-12-14T04:01:20;100115.93;;;18.37;57.29
70555;BME280;58104;52.744;15.242;2023-12-14T04:03:45;100122.44;;;18.35;57.43
70555;BME280;58104;52.744;15.242;2023-12-14T04:06:11;100126.34;;;18.36;57.68
70555;BME280;58104;52.744;15.242;2023-12-14T04:08:36;100130.07;;;18.39;57.74
70555;BME280;58104;52.744;15.242;2023-12-14T04:11:01;100130.85;;;18.31;57.80
70555;BME280;58104;52.744;15.242;2023-12-14T04:13:27;100134.76;;;18.37;58.17
70555;BME280;58104;52.744;15.242;2023-12-14T04:15:52;100139.59;;;18.35;58.20
70555;BME280;58104;52.744;15.242;2023-12-14T04:18:17;100143.29;;;18.35;58.09
70555;BME280;58104;52.744;15.242;2023-12-14T04:20:43;100146.86;;;18.37;58.17
70555;BME280;58104;52.744;15.242;2023-12-14T04:23:08;100151.87;;;18.34;58.09
70555;BME280;58104;52.744;15.242;2023-12-14T04:25:34;100151.31;;;18.36;57.98
70555;BME280;58104;52.744;15.242;2023-12-14T04:27:59;100156.16;;;18.32;57.94
70555;BME280;58104;52.744;15.242;2023-12-14T04:30:25;100161.53;;;18.36;57.96
70555;BME280;58104;52.744;15.242;2023-12-14T04:32:50;100159.99;;;18.35;58.28
70555;BME280;58104;52.744;15.242;2023-12-14T04:35:15;100163.38;;;18.30;58.32
70555;BME280;58104;52.744;15.242;2023-12-14T04:37:41;100167.62;;;18.30;58.21
70555;BME280;58104;52.744;15.242;2023-12-14T04:40:07;100169.07;;;18.37;58.24
70555;BME280;58104;52.744;15.242;2023-12-14T04:42:31;100170.49;;;18.25;58.27
70555;BME280;58104;52.744;15.242;2023-12-14T04:44:57;100174.50;;;18.30;58.28
70555;BME280;58104;52.744;15.242;2023-12-14T04:47:22;100177.62;;;18.35;58.33
70555;BME280;58104;52.744;15.242;2023-12-14T04:49:48;100182.46;;;18.35;58.32
70555;BME280;58104;52.744;15.242;2023-12-14T04:52:13;100181.79;;;18.35;58.36
70555;BME280;58104;52.744;15.242;2023-12-14T04:54:39;100186.60;;;18.34;58.48
70555;BME280;58104;52.744;15.242;2023-12-14T04:57:04;100188.61;;;18.35;58.41
70555;BME280;58104;52.744;15.242;2023-12-14T04:59:29;100193.94;;;18.38;58.40
70555;BME280;58104;52.744;15.242;2023-12-14T05:01:54;100202.26;;;18.31;58.47
70555;BME280;58104;52.744;15.242;2023-12-14T05:04:20;100207.08;;;18.38;58.54
70555;BME280;58104;52.744;15.242;2023-12-14T05:06:45;100211.84;;;18.36;58.63
70555;BME280;58104;52.744;15.242;2023-12-14T05:09:11;100217.07;;;18.38;58.60
70555;BME280;58104;52.744;15.242;2023-12-14T05:11:36;100222.10;;;18.37;58.82
70555;BME280;58104;52.744;15.242;2023-12-14T05:14:01;100226.42;;;18.38;59.00
70555;BME280;58104;52.744;15.242;2023-12-14T05:16:27;100229.59;;;18.34;59.11
70555;BME280;58104;52.744;15.242;2023-12-14T05:18:52;100233.21;;;18.35;59.05
70555;BME280;58104;52.744;15.242;2023-12-14T05:21:18;100235.92;;;18.29;59.11
70555;BME280;58104;52.744;15.242;2023-12-14T05:23:43;100245.14;;;18.29;59.27
70555;BME280;58104;52.744;15.242;2023-12-14T05:26:08;100246.74;;;18.43;58.94
70555;BME280;58104;52.744;15.242;2023-12-14T05:28:34;100252.19;;;18.53;58.95
70555;BME280;58104;52.744;15.242;2023-12-14T05:30:59;100257.36;;;18.56;58.73
70555;BME280;58104;52.744;15.242;2023-12-14T05:33:24;100262.58;;;18.57;58.76
70555;BME280;58104;52.744;15.242;2023-12-14T05:35:50;100263.57;;;18.72;56.52
70555;BME280;58104;52.744;15.242;2023-12-14T05:38:15;100262.81;;;18.30;52.37
70555;BME280;58104;52.744;15.242;2023-12-14T05:40:41;100266.29;;;18.07;50.72
70555;BME280;58104;52.744;15.242;2023-12-14T05:43:06;100270.07;;;18.01;49.30
70555;BME280;58104;52.744;15.242;2023-12-14T05:45:32;100273.43;;;18.01;48.03
70555;BME280;58104;52.744;15.242;2023-12-14T05:47:57;100279.67;;;17.87;46.66
70555;BME280;58104;52.744;15.242;2023-12-14T05:50:22;100282.51;;;17.66;46.26
70555;BME280;58104;52.744;15.242;2023-12-14T05:52:48;100287.36;;;17.68;46.56
70555;BME280;58104;52.744;15.242;2023-12-14T05:55:13;100289.97;;;17.56;45.04
70555;BME280;58104;52.744;15.242;2023-12-14T05:57:39;100292.76;;;17.53;45.19
70555;BME280;58104;52.744;15.242;2023-12-14T06:00:07;100296.90;;;17.42;44.52
70555;BME280;58104;52.744;15.242;2023-12-14T06:02:31;100297.42;;;17.31;44.21
70555;BME280;58104;52.744;15.242;2023-12-14T06:04:56;100302.41;;;17.38;44.23
70555;BME280;58104;52.744;15.242;2023-12-14T06:07:21;100304.01;;;17.35;42.84
70555;BME280;58104;52.744;15.242;2023-12-14T06:09:46;100310.80;;;17.42;42.99
70555;BME280;58104;52.744;15.242;2023-12-14T06:12:12;100318.30;;;17.20;43.05
70555;BME280;58104;52.744;15.242;2023-12-14T06:14:37;100320.57;;;17.28;42.44
70555;BME280;58104;52.744;15.242;2023-12-14T06:17:03;100318.87;;;17.31;42.14
70555;BME280;58104;52.744;15.242;2023-12-14T06:19:28;100320.55;;;17.13;42.23
70555;BME280;58104;52.744;15.242;2023-12-14T06:21:54;100322.31;;;17.25;46.08
70555;BME280;58104;52.744;15.242;2023-12-14T06:24:19;100320.59;;;17.38;47.54
70555;BME280;58104;52.744;15.242;2023-12-14T06:26:44;100324.03;;;17.40;47.96
70555;BME280;58104;52.744;15.242;2023-12-14T06:32:14;100334.75;;;16.83;44.99
70555;BME280;58104;52.744;15.242;2023-12-14T06:34:39;100338.35;;;16.92;43.95
70555;BME280;58104;52.744;15.242;2023-12-14T06:37:04;100344.08;;;16.94;43.81
70555;BME280;58104;52.744;15.242;2023-12-14T06:39:29;100346.82;;;17.11;42.63
70555;BME280;58104;52.744;15.242;2023-12-14T06:41:55;100350.11;;;16.96;42.47
70555;BME280;58104;52.744;15.242;2023-12-14T06:44:20;100352.79;;;16.83;43.51
70555;BME280;58104;52.744;15.242;2023-12-14T06:46:45;100358.83;;;17.19;45.52
70555;BME280;58104;52.744;15.242;2023-12-14T06:49:11;100362.05;;;17.40;45.83
70555;BME280;58104;52.744;15.242;2023-12-14T06:51:36;100367.62;;;17.31;46.27
70555;BME280;58104;52.744;15.242;2023-12-14T06:54:01;100374.90;;;17.37;46.48
70555;BME280;58104;52.744;15.242;2023-12-14T06:56:27;100380.88;;;17.41;46.65
70555;BME280;58104;52.744;15.242;2023-12-14T06:58:52;100384.67;;;17.47;46.82
70555;BME280;58104;52.744;15.242;2023-12-14T07:01:18;100388.82;;;17.50;46.95
70555;BME280;58104;52.744;15.242;2023-12-14T07:03:45;100391.33;;;17.60;47.08
70555;BME280;58104;52.744;15.242;2023-12-14T07:06:13;100391.71;;;17.53;47.14
70555;BME280;58104;52.744;15.242;2023-12-14T07:08:35;100396.17;;;17.70;47.21
70555;BME280;58104;52.744;15.242;2023-12-14T07:10:59;100397.36;;;17.73;47.20
70555;BME280;58104;52.744;15.242;2023-12-14T07:13:25;100399.93;;;17.85;47.82
70555;BME280;58104;52.744;15.242;2023-12-14T07:15:51;100402.36;;;17.89;48.41
70555;BME280;58104;52.744;15.242;2023-12-14T07:18:15;100406.27;;;17.92;48.60
70555;BME280;58104;52.744;15.242;2023-12-14T07:20:41;100418.65;;;17.91;48.92
70555;BME280;58104;52.744;15.242;2023-12-14T07:23:06;100425.77;;;18.00;49.46
70555;BME280;58104;52.744;15.242;2023-12-14T07:25:32;100428.35;;;18.19;48.93
70555;BME280;58104;52.744;15.242;2023-12-14T07:27:57;100434.97;;;18.58;49.02
70555;BME280;58104;52.744;15.242;2023-12-14T07:30:22;100441.15;;;18.69;48.12
70555;BME280;58104;52.744;15.242;2023-12-14T07:32:48;100440.98;;;18.96;47.57
70555;BME280;58104;52.744;15.242;2023-12-14T07:35:13;100441.64;;;19.09;46.85
70555;BME280;58104;52.744;15.242;2023-12-14T07:37:39;100444.25;;;19.14;47.22
70555;BME280;58104;52.744;15.242;2023-12-14T07:40:05;100447.19;;;19.11;47.11
70555;BME280;58104;52.744;15.242;2023-12-14T07:42:29;100447.49;;;19.10;47.33
70555;BME280;58104;52.744;15.242;2023-12-14T07:44:55;100446.32;;;19.00;46.88
70555;BME280;58104;52.744;15.242;2023-12-14T07:47:20;100451.98;;;18.93;47.75
70555;BME280;58104;52.744;15.242;2023-12-14T07:49:46;100459.26;;;19.13;47.56
70555;BME280;58104;52.744;15.242;2023-12-14T07:52:11;100470.03;;;19.38;46.99
70555;BME280;58104;52.744;15.242;2023-12-14T07:54:36;100476.52;;;19.28;47.19
70555;BME280;58104;52.744;15.242;2023-12-14T07:57:02;100479.32;;;19.21;47.53
70555;BME280;58104;52.744;15.242;2023-12-14T07:59:27;100484.54;;;19.23;47.77
70555;BME280;58104;52.744;15.242;2023-12-14T08:01:52;100484.97;;;19.29;47.76
70555;BME280;58104;52.744;15.242;2023-12-14T08:04:18;100489.90;;;19.37;47.89
70555;BME280;58104;52.744;15.242;2023-12-14T08:06:43;100496.39;;;19.35;47.68
70555;BME280;58104;52.744;15.242;2023-12-14T08:09:08;100500.71;;;19.36;47.65
70555;BME280;58104;52.744;15.242;2023-12-14T08:11:34;100505.65;;;19.43;47.68
70555;BME280;58104;52.744;15.242;2023-12-14T08:13:59;100511.79;;;19.51;47.76
70555;BME280;58104;52.744;15.242;2023-12-14T08:16:25;100518.34;;;19.54;47.70
70555;BME280;58104;52.744;15.242;2023-12-14T08:18:50;100523.27;;;19.64;47.80
70555;BME280;58104;52.744;15.242;2023-12-14T08:21:15;100530.66;;;19.72;47.65
70555;BME280;58104;52.744;15.242;2023-12-14T08:23:41;100540.18;;;19.73;47.48
70555;BME280;58104;52.744;15.242;2023-12-14T08:26:06;100543.66;;;19.73;47.78
70555;BME280;58104;52.744;15.242;2023-12-14T08:28:31;100545.08;;;19.85;47.71
70555;BME280;58104;52.744;15.242;2023-12-14T08:30:57;100548.06;;;19.93;47.74
70555;BME280;58104;52.744;15.242;2023-12-14T08:33:22;100549.75;;;19.91;47.94
70555;BME280;58104;52.744;15.242;2023-12-14T08:35:48;100550.99;;;19.91;48.04
70555;BME280;58104;52.744;15.242;2023-12-14T08:38:13;100552.38;;;19.91;48.09
70555;BME280;58104;52.744;15.242;2023-12-14T08:40:39;100556.36;;;19.81;48.37
70555;BME280;58104;52.744;15.242;2023-12-14T08:43:04;100565.72;;;19.79;48.45
70555;BME280;58104;52.744;15.242;2023-12-14T08:45:29;100573.88;;;19.68;48.85
70555;BME280;58104;52.744;15.242;2023-12-14T08:47:55;100578.81;;;19.70;48.96
70555;BME280;58104;52.744;15.242;2023-12-14T08:50:20;100581.17;;;19.70;49.10
70555;BME280;58104;52.744;15.242;2023-12-14T08:52:45;100583.41;;;19.64;49.25
70555;BME280;58104;52.744;15.242;2023-12-14T08:55:11;100582.95;;;19.66;49.23
70555;BME280;58104;52.744;15.242;2023-12-14T08:57:36;100584.75;;;19.52;49.28
70555;BME280;58104;52.744;15.242;2023-12-14T09:00:02;100583.24;;;19.56;49.13
70555;BME280;58104;52.744;15.242;2023-12-14T09:02:27;100585.71;;;19.57;49.25
70555;BME280;58104;52.744;15.242;2023-12-14T09:04:52;100582.06;;;19.49;49.41
70555;BME280;58104;52.744;15.242;2023-12-14T09:07:17;100588.21;;;19.62;49.34
70555;BME280;58104;52.744;15.242;2023-12-14T09:09:43;100593.56;;;19.52;49.32
70555;BME280;58104;52.744;15.242;2023-12-14T09:12:08;100601.58;;;19.45;49.47
70555;BME280;58104;52.744;15.242;2023-12-14T09:14:33;100608.00;;;19.57;49.44
70555;BME280;58104;52.744;15.242;2023-12-14T09:16:59;100611.83;;;19.75;49.05
70555;BME280;58104;52.744;15.242;2023-12-14T09:19:24;100616.89;;;19.93;48.70
70555;BME280;58104;52.744;15.242;2023-12-14T09:21:50;100622.80;;;19.85;48.61
70555;BME280;58104;52.744;15.242;2023-12-14T09:24:15;100624.35;;;20.06;48.54
70555;BME280;58104;52.744;15.242;2023-12-14T09:26:40;100626.67;;;20.06;48.55
70555;BME280;58104;52.744;15.242;2023-12-14T09:29:06;100626.06;;;20.06;48.62
70555;BME280;58104;52.744;15.242;2023-12-14T09:31:31;100626.56;;;19.90;48.66
70555;BME280;58104;52.744;15.242;2023-12-14T09:33:57;100623.36;;;19.93;48.53
70555;BME280;58104;52.744;15.242;2023-12-14T09:36:22;100623.88;;;19.99;48.58
70555;BME280;58104;52.744;15.242;2023-12-14T09:38:47;100622.17;;;19.85;48.64
70555;BME280;58104;52.744;15.242;2023-12-14T09:41:13;100623.33;;;19.90;48.73
70555;BME280;58104;52.744;15.242;2023-12-14T09:43:38;100622.47;;;19.85;49.00
70555;BME280;58104;52.744;15.242;2023-12-14T09:46:04;100621.16;;;19.90;49.12
70555;BME280;58104;52.744;15.242;2023-12-14T09:48:29;100622.83;;;19.83;49.25
70555;BME280;58104;52.744;15.242;2023-12-14T09:50:54;100631.21;;;19.88;49.27
70555;BME280;58104;52.744;15.242;2023-12-14T09:53:19;100638.25;;;19.81;49.40
70555;BME280;58104;52.744;15.242;2023-12-14T09:55:45;100645.24;;;19.83;49.45
70555;BME280;58104;52.744;15.242;2023-12-14T09:58:10;100647.85;;;19.77;49.61
70555;BME280;58104;52.744;15.242;2023-12-14T10:00:37;100654.24;;;19.64;49.78
70555;BME280;58104;52.744;15.242;2023-12-14T10:05:26;100654.96;;;19.71;49.84
70555;BME280;58104;52.744;15.242;2023-12-14T10:07:52;100654.17;;;19.75;49.80
70555;BME280;58104;52.744;15.242;2023-12-14T10:10:17;100659.59;;;19.73;49.91
70555;BME280;58104;52.744;15.242;2023-12-14T10:12:51;100662.60;;;19.73;49.99
70555;BME280;58104;52.744;15.242;2023-12-14T10:15:08;100665.92;;;19.62;50.17
70555;BME280;58104;52.744;15.242;2023-12-14T10:17:33;100665.83;;;19.68;50.21
70555;BME280;58104;52.744;15.242;2023-12-14T10:19:58;100665.35;;;19.73;50.26
70555;BME280;58104;52.744;15.242;2023-12-14T10:22:26;100667.44;;;19.67;50.32
70555;BME280;58104;52.744;15.242;2023-12-14T10:24:49;100671.38;;;19.58;50.37
70555;BME280;58104;52.744;15.242;2023-12-14T10:27:15;100671.54;;;19.64;50.46
70555;BME280;58104;52.744;15.242;2023-12-14T10:29:40;100665.06;;;19.57;50.48
70555;BME280;58104;52.744;15.242;2023-12-14T10:32:06;100665.59;;;19.57;50.47
70555;BME280;58104;52.744;15.242;2023-12-14T10:34:31;100660.57;;;19.40;50.47
70555;BME280;58104;52.744;15.242;2023-12-14T10:36:56;100658.42;;;19.31;50.48
70555;BME280;58104;52.744;15.242;2023-12-14T10:39:22;100661.32;;;19.24;50.38
70555;BME280;58104;52.744;15.242;2023-12-14T10:41:47;100667.43;;;19.21;50.28
70555;BME280;58104;52.744;15.242;2023-12-14T10:44:12;100671.94;;;19.18;50.15
70555;BME280;58104;52.744;15.242;2023-12-14T10:46:38;100670.85;;;19.22;49.75
70555;BME280;58104;52.744;15.242;2023-12-14T10:49:03;100675.19;;;19.21;49.61
70555;BME280;58104;52.744;15.242;2023-12-14T10:51:29;100676.86;;;19.11;49.72
70555;BME280;58104;52.744;15.242;2023-12-14T10:53:54;100683.19;;;19.10;49.67
70555;BME280;58104;52.744;15.242;2023-12-14T10:56:19;100687.74;;;19.17;49.36
70555;BME280;58104;52.744;15.242;2023-12-14T10:58:46;100692.85;;;19.19;49.28
70555;BME280;58104;52.744;15.242;2023-12-14T11:01:13;100697.55;;;19.21;49.27
70555;BME280;58104;52.744;15.242;2023-12-14T11:03:36;100706.37;;;19.28;49.31
70555;BME280;58104;52.744;15.242;2023-12-14T11:06:01;100711.14;;;19.33;49.36
70555;BME280;58104;52.744;15.242;2023-12-14T11:08:26;100715.38;;;19.34;49.45
70555;BME280;58104;52.744;15.242;2023-12-14T11:10:54;100716.51;;;19.41;49.50
70555;BME280;58104;52.744;15.242;2023-12-14T11:13:17;100722.89;;;19.42;49.66
70555;BME280;58104;52.744;15.242;2023-12-14T11:15:47;100729.38;;;19.44;49.74
70555;BME280;58104;52.744;15.242;2023-12-14T11:18:21;100733.70;;;19.44;49.75
70555;BME280;58104;52.744;15.242;2023-12-14T11:23:07;100740.21;;;19.45;49.95
70555;BME280;58104;52.744;15.242;2023-12-14T11:25:24;100744.35;;;19.48;49.91
70555;BME280;58104;52.744;15.242;2023-12-14T11:27:49;100746.08;;;19.45;50.05
70555;BME280;58104;52.744;15.242;2023-12-14T11:30:15;100747.13;;;19.44;50.15
70555;BME280;58104;52.744;15.242;2023-12-14T11:32:40;100751.54;;;19.45;50.19
70555;BME280;58104;52.744;15.242;2023-12-14T11:35:06;100753.99;;;19.42;50.11
70555;BME280;58104;52.744;15.242;2023-12-14T11:37:31;100756.42;;;19.45;50.20
70555;BME280;58104;52.744;15.242;2023-12-14T11:39:56;100756.53;;;19.42;50.33
70555;BME280;58104;52.744;15.242;2023-12-14T11:42:21;100761.12;;;19.43;50.37
70555;BME280;58104;52.744;15.242;2023-12-14T11:44:47;100761.92;;;19.46;50.40
70555;BME280;58104;52.744;15.242;2023-12-14T11:47:12;100763.31;;;19.49;49.93
70555;BME280;58104;52.744;15.242;2023-12-14T11:49:37;100764.41;;;19.34;49.43
70555;BME280;58104;52.744;15.242;2023-12-14T11:52:03;100762.67;;;19.25;48.26
70555;BME280;58104;52.744;15.242;2023-12-14T11:54:28;100764.34;;;19.16;47.35
70555;BME280;58104;52.744;15.242;2023-12-14T11:56:54;100765.47;;;19.12;46.74
70555;BME280;58104;52.744;15.242;2023-12-14T11:59:19;100766.70;;;19.03;46.35
70555;BME280;58104;52.744;15.242;2023-12-14T12:01:55;100766.07;;;19.27;46.12
70555;BME280;58104;52.744;15.242;2023-12-14T12:04:10;100771.05;;;19.25;46.51
70555;BME280;58104;52.744;15.242;2023-12-14T12:06:35;100773.87;;;19.31;46.72
70555;BME280;58104;52.744;15.242;2023-12-14T12:09:01;100778.45;;;19.34;46.94
70555;BME280;58104;52.744;15.242;2023-12-14T12:11:26;100781.62;;;19.32;47.33
70555;BME280;58104;52.744;15.242;2023-12-14T12:13:52;100780.43;;;19.34;47.50
70555;BME280;58104;52.744;15.242;2023-12-14T12:16:17;100779.17;;;19.40;47.78
70555;BME280;58104;52.744;15.242;2023-12-14T12:18:42;100779.41;;;19.44;47.89
70555;BME280;58104;52.744;15.242;2023-12-14T12:21:08;100781.39;;;19.38;48.15
70555;BME280;58104;52.744;15.242;2023-12-14T12:23:33;100785.58;;;19.51;48.05
70555;BME280;58104;52.744;15.242;2023-12-14T12:25:58;100780.31;;;19.39;48.07
70555;BME280;58104;52.744;15.242;2023-12-14T12:28:24;100775.84;;;19.42;48.32
70555;BME280;58104;52.744;15.242;2023-12-14T12:30:49;100777.29;;;19.42;48.34
70555;BME280;58104;52.744;15.242;2023-12-14T12:33:14;100780.18;;;19.42;48.51
70555;BME280;58104;52.744;15.242;2023-12-14T12:35:40;100786.08;;;19.40;48.69
70555;BME280;58104;52.744;15.242;2023-12-14T12:38:05;100790.61;;;19.38;48.75
70555;BME280;58104;52.744;15.242;2023-12-14T12:40:30;100798.63;;;19.50;48.75